createdAt,value
2018-06-18T03:01:05.548Z,5.00
2018-06-18T03:02:04.632Z,5.80
2018-06-18T03:03:04.046Z,6.80
2018-06-18T03:04:04.181Z,7.60
2018-06-18T03:05:04.356Z,6.50
2018-06-18T03:06:04.452Z,5.50
2018-06-18T03:07:04.698Z,5.60
2018-06-18T03:08:04.833Z,8.00
2018-06-18T03:09:05.058Z,6.40
2018-06-18T03:10:05.144Z,7.20
2018-06-18T03:11:05.391Z,7.50
2018-06-18T03:12:05.450Z,7.90
2018-06-18T03:13:05.627Z,5.80
2018-06-18T03:14:05.844Z,7.50
2018-06-18T03:15:06.043Z,5.50
2018-06-18T03:16:06.173Z,5.60
2018-06-18T03:17:06.305Z,6.10
2018-06-18T03:18:06.560Z,5.40
2018-06-18T03:19:06.677Z,5.60
2018-06-18T03:20:06.839Z,6.00
2018-06-18T03:21:07.019Z,4.50
2018-06-18T03:22:07.179Z,6.80
2018-06-18T03:23:07.381Z,5.40
2018-06-18T03:24:07.476Z,5.30
2018-06-18T03:25:07.694Z,5.80
2018-06-18T03:26:07.844Z,6.30
2018-06-18T03:27:07.982Z,7.50
2018-06-18T03:28:08.186Z,7.90
2018-06-18T03:29:08.361Z,7.40
2018-06-18T03:30:08.495Z,5.60
2018-06-18T03:31:08.709Z,6.60
2018-06-18T03:32:08.881Z,6.00
2018-06-18T03:33:09.014Z,6.80
2018-06-18T03:34:09.186Z,7.80
2018-06-18T03:35:09.400Z,8.80
2018-06-18T03:36:09.566Z,5.40
2018-06-18T03:37:09.682Z,8.40
2018-06-18T03:38:09.865Z,5.60
2018-06-18T03:39:10.093Z,6.90
2018-06-18T03:40:10.195Z,8.00
2018-06-18T03:41:10.344Z,7.70
2018-06-18T03:42:10.505Z,4.60
2018-06-18T03:43:10.728Z,6.00
2018-06-18T03:44:10.795Z,5.80
2018-06-18T03:45:11.025Z,7.80
2018-06-18T03:46:11.140Z,6.30
2018-06-18T03:47:11.359Z,6.90
2018-06-18T03:48:11.498Z,6.20
2018-06-18T03:49:11.725Z,7.10
2018-06-18T03:50:11.816Z,5.60
2018-06-18T03:51:12.031Z,6.60
2018-06-18T03:52:12.181Z,8.00
2018-06-18T03:53:12.366Z,5.90
2018-06-18T03:54:12.458Z,5.50
2018-06-18T03:55:12.687Z,7.60
2018-06-18T03:56:12.819Z,6.10
2018-06-18T03:57:12.951Z,6.00
2018-06-18T03:58:13.212Z,6.90
2018-06-18T03:59:13.325Z,8.40
2018-06-18T04:00:13.479Z,5.20
2018-06-18T04:01:13.628Z,6.00
2018-06-18T04:02:13.893Z,6.60
2018-06-18T04:03:14.090Z,6.20
2018-06-18T04:04:14.251Z,6.90
2018-06-18T04:05:14.334Z,6.80
2018-06-18T04:06:14.577Z,7.80
2018-06-18T04:07:14.708Z,7.20
2018-06-18T04:08:14.979Z,7.80
2018-06-18T04:09:14.980Z,6.00
2018-06-18T04:10:15.158Z,6.60
2018-06-18T04:11:15.457Z,7.20
2018-06-18T04:12:15.518Z,7.20
2018-06-18T04:13:15.690Z,5.20
2018-06-18T04:14:15.890Z,5.80
2018-06-18T04:15:16.055Z,7.80
2018-06-18T04:16:16.155Z,5.50
2018-06-18T04:17:16.328Z,7.60
2018-06-18T04:18:16.612Z,8.30
2018-06-18T04:19:16.783Z,5.40
2018-06-18T04:20:16.969Z,6.90
2018-06-18T04:21:17.060Z,7.80
2018-06-18T04:22:17.229Z,4.40
2018-06-18T04:23:17.445Z,6.50
2018-06-18T04:24:17.572Z,4.70
2018-06-18T04:25:17.722Z,7.50
2018-06-18T04:26:17.873Z,6.50
2018-06-18T04:27:18.125Z,6.00
2018-06-18T04:28:18.214Z,6.90
2018-06-18T04:29:18.365Z,7.20
2018-06-18T04:30:18.585Z,5.50
2018-06-18T04:31:18.744Z,7.30
2018-06-18T04:32:18.854Z,5.70
2018-06-18T04:33:19.157Z,5.10
2018-06-18T04:34:19.334Z,6.80
2018-06-18T04:35:19.478Z,6.70
2018-06-18T04:36:19.522Z,5.40
2018-06-18T04:37:19.833Z,4.70
2018-06-18T04:38:19.902Z,5.30
2018-06-18T04:39:20.123Z,6.50
2018-06-18T04:40:20.277Z,6.50
2018-06-18T04:41:20.475Z,6.80
2018-06-18T04:42:20.613Z,6.20
2018-06-18T04:43:20.743Z,7.40
2018-06-18T04:44:20.967Z,6.20
2018-06-18T04:45:21.164Z,6.40
2018-06-18T04:46:21.234Z,6.20
2018-06-18T04:47:21.423Z,5.00
2018-06-18T04:48:21.628Z,5.20
2018-06-18T04:49:21.760Z,7.80
2018-06-18T04:50:22.013Z,7.40
2018-06-18T04:51:22.141Z,8.00
2018-06-18T04:52:22.262Z,6.50
2018-06-18T04:53:22.512Z,6.70
2018-06-18T04:54:22.607Z,9.80
2018-06-18T04:55:22.805Z,6.10
2018-06-18T04:56:23.106Z,6.50
2018-06-18T04:57:23.219Z,6.40
2018-06-18T04:58:23.367Z,4.90
2018-06-18T04:59:23.628Z,6.00
2018-06-18T05:00:23.773Z,6.90
2018-06-18T05:01:23.948Z,5.20
2018-06-18T05:02:24.086Z,5.50
2018-06-18T05:03:24.215Z,6.70
2018-06-18T05:04:24.415Z,5.20
2018-06-18T05:05:24.618Z,4.90
2018-06-18T05:06:24.722Z,6.30
2018-06-18T05:07:24.908Z,7.10
2018-06-18T05:08:25.050Z,11.30
2018-06-18T05:09:25.247Z,7.10
2018-06-18T05:10:25.535Z,7.20
2018-06-18T05:11:25.591Z,6.00
2018-06-18T05:12:25.758Z,6.00
2018-06-18T05:13:25.892Z,6.60
2018-06-18T05:14:26.040Z,6.60
2018-06-18T05:15:26.265Z,6.70
2018-06-18T05:16:26.421Z,7.00
2018-06-18T05:17:26.607Z,6.90
2018-06-18T05:18:26.812Z,7.20
2018-06-18T05:19:27.036Z,5.50
2018-06-18T05:20:27.218Z,6.70
2018-06-18T05:21:27.379Z,7.80
2018-06-18T05:22:27.503Z,5.30
2018-06-18T05:23:27.702Z,6.50
2018-06-18T05:24:27.932Z,6.00
2018-06-18T05:25:28.090Z,6.20
2018-06-18T05:26:28.286Z,5.10
2018-06-18T05:27:28.416Z,5.40
2018-06-18T05:28:28.565Z,6.60
2018-06-18T05:29:28.935Z,7.10
2018-06-18T05:30:28.896Z,5.10
2018-06-18T05:31:29.097Z,5.80
2018-06-18T05:32:29.388Z,5.80
2018-06-18T05:33:29.515Z,8.30
2018-06-18T05:34:29.661Z,5.60
2018-06-18T05:35:29.857Z,5.70
2018-06-18T05:36:30.159Z,4.80
2018-06-18T05:37:30.104Z,6.10
2018-06-18T05:38:30.379Z,6.00
2018-06-18T05:39:30.364Z,5.10
2018-06-18T05:40:30.636Z,6.10
2018-06-18T05:41:30.803Z,5.20
2018-06-18T05:42:30.860Z,5.40
2018-06-18T05:43:31.236Z,5.90
2018-06-18T05:44:31.319Z,6.20
2018-06-18T05:45:31.464Z,4.60
2018-06-18T05:46:31.692Z,6.40
2018-06-18T05:47:31.854Z,6.70
2018-06-18T05:48:31.956Z,6.90
2018-06-18T05:49:32.082Z,5.90
2018-06-18T05:50:32.408Z,6.20
2018-06-18T05:51:32.677Z,5.50
2018-06-18T05:52:32.824Z,5.70
2018-06-18T05:53:32.971Z,5.60
2018-06-18T05:54:33.151Z,6.10
2018-06-18T05:55:33.303Z,6.40
2018-06-18T05:56:33.477Z,5.90
2018-06-18T05:57:33.566Z,5.90
2018-06-18T05:58:33.897Z,5.30
2018-06-18T05:59:34.042Z,5.90
2018-06-18T06:00:35.304Z,5.00
2018-06-18T06:01:34.610Z,6.10
2018-06-18T06:02:34.533Z,7.20
2018-06-18T06:03:34.741Z,5.40
2018-06-18T06:04:34.931Z,5.30
2018-06-18T06:05:35.045Z,5.50
2018-06-18T06:06:35.284Z,5.00
2018-06-18T06:07:35.521Z,6.10
2018-06-18T06:08:37.296Z,5.70
2018-06-18T06:09:48.711Z,6.20
2018-06-18T06:10:38.826Z,9.10
2018-06-18T06:11:39.154Z,6.00
2018-06-18T06:12:36.621Z,6.90
2018-06-18T06:13:36.480Z,5.50
2018-06-18T06:14:36.633Z,4.00
2018-06-18T06:15:36.829Z,7.30
2018-06-18T06:16:37.016Z,5.70
2018-06-18T06:17:37.187Z,6.00
2018-06-18T06:18:37.296Z,7.30
2018-06-18T06:19:37.504Z,5.80
2018-06-18T06:20:37.680Z,6.50
2018-06-18T06:21:37.788Z,6.40
2018-06-18T06:22:37.948Z,5.50
2018-06-18T06:23:38.162Z,4.10
2018-06-18T06:24:38.439Z,5.50
2018-06-18T06:25:38.587Z,7.80
2018-06-18T06:26:38.720Z,6.10
2018-06-18T06:27:38.910Z,5.20
2018-06-18T06:28:39.107Z,4.50
2018-06-18T06:29:39.377Z,7.00
2018-06-18T06:30:39.465Z,5.90
2018-06-18T06:31:39.617Z,4.80
2018-06-18T06:32:39.757Z,5.40
2018-06-18T06:33:40.107Z,6.50
2018-06-18T06:34:40.140Z,3.90
2018-06-18T06:35:40.337Z,3.50
2018-06-18T06:36:40.541Z,4.20
2018-06-18T06:37:40.708Z,4.80
2018-06-18T06:38:40.875Z,7.20
2018-06-18T06:39:41.098Z,7.50
2018-06-18T06:40:41.181Z,5.10
2018-06-18T06:41:41.399Z,5.70
2018-06-18T06:42:41.601Z,5.70
2018-06-18T06:43:42.464Z,4.70
2018-06-18T06:44:41.949Z,5.40
2018-06-18T06:45:42.032Z,5.60
2018-06-18T06:46:42.211Z,4.90
2018-06-18T06:47:42.414Z,5.50
2018-06-18T06:48:42.567Z,5.70
2018-06-18T06:49:42.671Z,4.80
2018-06-18T06:50:42.943Z,7.00
2018-06-18T06:51:43.138Z,5.90
2018-06-18T06:52:43.219Z,6.80
2018-06-18T06:53:43.439Z,5.80
2018-06-18T06:54:43.642Z,5.20
2018-06-18T06:55:43.840Z,5.40
2018-06-18T06:56:44.067Z,4.80
2018-06-18T06:57:44.210Z,5.90
2018-06-18T06:58:44.996Z,4.40
2018-06-18T06:59:44.544Z,5.40
2018-06-18T07:00:44.630Z,4.20
2018-06-18T07:01:44.927Z,6.80
2018-06-18T07:02:45.162Z,5.90
2018-06-18T07:03:45.235Z,6.60
2018-06-18T07:04:45.469Z,5.20
2018-06-18T07:05:45.673Z,5.80
2018-06-18T07:06:45.859Z,5.10
2018-06-18T07:07:45.982Z,6.30
2018-06-18T07:08:46.128Z,5.00
2018-06-18T07:09:46.348Z,3.90
2018-06-18T07:10:46.536Z,4.60
2018-06-18T07:11:46.717Z,3.90
2018-06-18T07:12:46.855Z,5.80
2018-06-18T07:13:47.043Z,7.30
2018-06-18T07:14:47.167Z,4.40
2018-06-18T07:15:47.343Z,4.50
2018-06-18T07:16:47.469Z,5.10
2018-06-18T07:17:47.602Z,5.90
2018-06-18T07:18:47.876Z,4.90
2018-06-18T07:19:47.981Z,4.70
2018-06-18T07:20:48.136Z,6.10
2018-06-18T07:21:48.347Z,5.00
2018-06-18T07:22:48.611Z,5.30
2018-06-18T07:23:48.724Z,4.00
2018-06-18T07:24:48.879Z,5.70
2018-06-18T07:25:49.054Z,5.80
2018-06-18T07:26:49.209Z,6.70
2018-06-18T07:27:49.402Z,6.00
2018-06-18T07:28:49.609Z,6.30
2018-06-18T07:29:49.716Z,6.10
2018-06-18T07:30:50.045Z,4.40
2018-06-18T07:31:50.050Z,5.60
2018-06-18T07:32:50.187Z,5.70
2018-06-18T07:33:50.481Z,6.10
2018-06-18T07:34:50.607Z,5.30
2018-06-18T07:35:50.703Z,4.00
2018-06-18T07:36:51.278Z,4.00
2018-06-18T07:37:51.113Z,5.30
2018-06-18T07:38:51.231Z,4.50
2018-06-18T07:39:51.379Z,5.90
2018-06-18T07:40:51.564Z,5.10
2018-06-18T07:41:51.710Z,4.60
2018-06-18T07:42:51.871Z,5.40
2018-06-18T07:43:52.106Z,5.10
2018-06-18T07:44:52.296Z,6.40
2018-06-18T07:45:52.360Z,6.70
2018-06-18T07:46:52.623Z,5.40
2018-06-18T07:47:52.752Z,3.90
2018-06-18T07:48:52.963Z,5.00
2018-06-18T07:49:53.130Z,4.40
2018-06-18T07:50:53.258Z,4.70
2018-06-18T07:51:53.467Z,5.60
2018-06-18T07:52:53.632Z,5.70
2018-06-18T07:53:53.779Z,4.60
2018-06-18T07:54:54.118Z,6.50
2018-06-18T07:55:54.177Z,4.10
2018-06-18T07:56:54.292Z,6.10
2018-06-18T07:57:54.508Z,6.40
2018-06-18T07:58:54.695Z,4.90
2018-06-18T07:59:54.796Z,5.30
2018-06-18T08:00:55.017Z,5.60
2018-06-18T08:01:55.200Z,6.00
2018-06-18T08:02:55.308Z,4.80
2018-06-18T08:03:55.569Z,5.70
2018-06-18T08:04:55.724Z,6.20
2018-06-18T08:05:55.854Z,6.40
2018-06-18T08:06:56.021Z,5.10
2018-06-18T08:07:56.194Z,4.80
2018-06-18T08:08:56.388Z,4.70
2018-06-18T08:09:56.540Z,4.60
2018-06-18T08:10:56.827Z,4.10
2018-06-18T08:11:56.876Z,5.70
2018-06-18T08:12:57.091Z,4.00
2018-06-18T08:13:57.203Z,6.00
2018-06-18T08:14:57.403Z,8.00
2018-06-18T08:15:57.700Z,4.20
2018-06-18T08:16:57.964Z,7.00
2018-06-18T08:17:58.018Z,4.70
2018-06-18T08:18:58.213Z,4.00
2018-06-18T08:19:58.333Z,5.00
2018-06-18T08:20:58.542Z,5.50
2018-06-18T08:21:58.711Z,4.30
2018-06-18T08:22:58.905Z,5.70
2018-06-18T08:23:59.056Z,5.20
2018-06-18T08:24:59.244Z,4.70
2018-06-18T08:25:59.424Z,5.90
2018-06-18T08:26:59.607Z,5.00
2018-06-18T08:27:59.731Z,7.30
2018-06-18T08:28:59.865Z,6.80
2018-06-18T08:30:00.070Z,3.70
2018-06-18T08:31:00.286Z,3.10
2018-06-18T08:32:00.447Z,5.00
2018-06-18T08:33:00.593Z,4.60
2018-06-18T08:34:00.794Z,3.70
2018-06-18T08:35:00.998Z,6.30
2018-06-18T08:36:01.193Z,7.00
2018-06-18T08:37:01.322Z,5.70
2018-06-18T08:38:01.441Z,6.80
2018-06-18T08:39:01.642Z,3.80
2018-06-18T08:40:01.802Z,4.00
2018-06-18T08:41:01.984Z,6.50
2018-06-18T08:42:02.189Z,4.80
2018-06-18T08:43:02.305Z,4.80
2018-06-18T08:44:02.527Z,5.80
2018-06-18T08:45:02.679Z,5.60
2018-06-18T08:46:02.861Z,5.20
2018-06-18T08:47:03.017Z,3.90
2018-06-18T08:48:03.159Z,5.90
2018-06-18T08:49:03.350Z,4.90
2018-06-18T08:50:03.539Z,6.30
2018-06-18T08:51:03.629Z,5.50
2018-06-18T08:52:03.899Z,6.10
2018-06-18T08:53:04.069Z,4.00
2018-06-18T08:54:04.199Z,5.60
2018-06-18T08:55:04.423Z,5.10
2018-06-18T08:56:04.553Z,4.90
2018-06-18T08:57:04.763Z,7.60
2018-06-18T08:58:04.951Z,6.80
2018-06-18T08:59:05.099Z,6.60
2018-06-18T09:00:05.292Z,5.80
2018-06-18T09:01:05.471Z,7.10
2018-06-18T09:02:05.628Z,5.50
2018-06-18T09:03:05.892Z,4.30
2018-06-18T09:04:05.932Z,5.10
2018-06-18T09:05:06.177Z,5.30
2018-06-18T09:06:06.391Z,5.30
2018-06-18T09:07:06.473Z,5.90
2018-06-18T09:08:06.734Z,3.10
2018-06-18T09:09:06.839Z,4.60
2018-06-18T09:10:07.010Z,8.20
2018-06-18T09:11:07.177Z,6.90
2018-06-18T09:12:07.339Z,9.50
2018-06-18T09:13:07.415Z,6.30
2018-06-18T09:14:07.627Z,6.50
2018-06-18T09:15:07.837Z,4.20
2018-06-18T09:16:07.946Z,4.80
2018-06-18T09:17:08.079Z,6.00
2018-06-18T09:18:08.267Z,5.00
2018-06-18T09:19:08.467Z,6.70
2018-06-18T09:20:08.673Z,6.90
2018-06-18T09:21:08.776Z,4.90
2018-06-18T09:22:09.013Z,4.80
2018-06-18T09:23:09.234Z,6.40
2018-06-18T09:24:09.340Z,5.90
2018-06-18T09:25:09.510Z,5.40
2018-06-18T09:26:09.645Z,4.70
2018-06-18T09:27:09.817Z,4.70
2018-06-18T09:28:10.026Z,6.40
2018-06-18T09:29:10.151Z,6.00
2018-06-18T09:30:10.372Z,8.00
2018-06-18T09:31:10.598Z,4.50
2018-06-18T09:32:10.766Z,6.00
2018-06-18T09:33:10.853Z,4.70
2018-06-18T09:34:11.063Z,5.00
2018-06-18T09:35:11.239Z,4.90
2018-06-18T09:36:11.351Z,5.40
2018-06-18T09:37:11.555Z,5.70
2018-06-18T09:38:11.773Z,6.10
2018-06-18T09:39:11.869Z,4.60
2018-06-18T09:40:12.015Z,6.80
2018-06-18T09:41:12.249Z,6.30
2018-06-18T09:42:12.436Z,5.00
2018-06-18T09:43:12.617Z,5.10
2018-06-18T09:44:12.746Z,3.60
2018-06-18T09:45:12.905Z,4.50
2018-06-18T09:46:13.081Z,5.40
2018-06-18T09:47:13.298Z,5.70
2018-06-18T09:48:13.439Z,6.80
2018-06-18T09:49:13.637Z,22.40
2018-06-18T09:50:13.765Z,4.20
2018-06-18T09:51:13.921Z,4.50
2018-06-18T09:52:14.090Z,4.40
2018-06-18T09:53:14.261Z,4.80
2018-06-18T09:54:14.441Z,5.60
2018-06-18T09:55:14.662Z,4.60
2018-06-18T09:56:14.850Z,5.40
2018-06-18T09:57:15.006Z,5.10
2018-06-18T09:58:15.209Z,3.70
2018-06-18T09:59:15.351Z,5.70
2018-06-18T10:00:15.522Z,4.20
2018-06-18T10:01:15.714Z,4.60
2018-06-18T10:02:15.938Z,6.20
2018-06-18T10:03:16.030Z,4.90
2018-06-18T10:04:16.241Z,3.30
2018-06-18T10:05:16.365Z,5.10
2018-06-18T10:06:16.569Z,5.40
2018-06-18T10:07:16.724Z,5.20
2018-06-18T10:08:16.895Z,6.40
2018-06-18T10:09:17.055Z,4.70
2018-06-18T10:10:17.204Z,5.80
2018-06-18T10:11:17.394Z,4.60
2018-06-18T10:12:17.611Z,6.20
2018-06-18T10:13:17.724Z,5.40
2018-06-18T10:14:17.865Z,3.40
2018-06-18T10:15:18.068Z,4.50
2018-06-18T10:16:18.279Z,6.10
2018-06-18T10:17:18.428Z,6.60
2018-06-18T10:18:18.635Z,4.30
2018-06-18T10:19:18.726Z,5.60
2018-06-18T10:20:18.989Z,5.30
2018-06-18T10:21:19.133Z,6.70
2018-06-18T10:22:19.267Z,5.00
2018-06-18T10:23:19.451Z,4.70
2018-06-18T10:24:19.660Z,6.00
2018-06-18T10:25:19.810Z,5.20
2018-06-18T10:26:19.991Z,5.90
2018-06-18T10:27:20.111Z,4.30
2018-06-18T10:28:20.377Z,4.70
2018-06-18T10:29:20.453Z,4.60
2018-06-18T10:30:20.593Z,4.20
2018-06-18T10:31:20.832Z,4.90
2018-06-18T10:32:21.017Z,5.60
2018-06-18T10:33:21.128Z,5.80
2018-06-18T10:34:21.336Z,3.50
2018-06-18T10:35:21.472Z,4.20
2018-06-18T10:36:21.665Z,3.50
2018-06-18T10:37:21.841Z,4.50
2018-06-18T10:38:22.020Z,3.30
2018-06-18T10:39:22.191Z,4.10
2018-06-18T10:40:22.382Z,4.80
2018-06-18T10:41:22.522Z,4.60
2018-06-18T10:42:22.706Z,4.30
2018-06-18T10:43:22.882Z,4.30
2018-06-18T10:44:23.122Z,6.90
2018-06-18T10:45:23.265Z,3.90
2018-06-18T10:46:23.389Z,4.50
2018-06-18T10:47:23.544Z,3.50
2018-06-18T10:48:23.763Z,4.70
2018-06-18T10:49:23.898Z,4.70
2018-06-18T10:50:24.048Z,5.60
2018-06-18T10:51:24.235Z,5.30
2018-06-18T10:52:24.457Z,4.30
2018-06-18T10:53:24.661Z,5.10
2018-06-18T10:54:24.854Z,5.80
2018-06-18T10:55:25.000Z,6.20
2018-06-18T10:56:25.163Z,4.90
2018-06-18T10:57:25.321Z,4.10
2018-06-18T10:58:25.542Z,3.50
2018-06-18T10:59:25.645Z,4.70
2018-06-18T11:00:25.854Z,4.70
2018-06-18T11:01:26.039Z,5.40
2018-06-18T11:02:26.166Z,5.40
2018-06-18T11:03:26.376Z,4.10
2018-06-18T11:04:26.595Z,4.00
2018-06-18T11:05:26.833Z,4.70
2018-06-18T11:06:26.969Z,3.80
2018-06-18T11:07:27.110Z,4.30
2018-06-18T11:08:27.237Z,3.90
2018-06-18T11:09:27.393Z,3.40
2018-06-18T11:10:27.631Z,4.00
2018-06-18T11:11:27.741Z,4.40
2018-06-18T11:12:28.019Z,4.60
2018-06-18T11:13:28.073Z,4.10
2018-06-18T11:14:28.297Z,4.20
2018-06-18T11:15:28.461Z,4.70
2018-06-18T11:16:28.739Z,4.70
2018-06-18T11:17:29.012Z,4.10
2018-06-18T11:18:29.055Z,3.80
2018-06-18T11:19:29.184Z,4.00
2018-06-18T11:20:29.330Z,5.20
2018-06-18T11:21:29.518Z,4.30
2018-06-18T11:22:29.771Z,2.60
2018-06-18T11:23:29.934Z,3.50
2018-06-18T11:24:30.109Z,4.70
2018-06-18T11:25:30.274Z,6.10
2018-06-18T11:26:30.460Z,3.30
2018-06-18T11:27:30.637Z,4.10
2018-06-18T11:28:30.786Z,4.20
2018-06-18T11:29:30.948Z,3.20
2018-06-18T11:30:31.177Z,3.60
2018-06-18T11:31:31.346Z,3.30
2018-06-18T11:32:31.483Z,3.40
2018-06-18T11:33:31.710Z,4.10
2018-06-18T11:34:31.857Z,3.90
2018-06-18T11:35:32.037Z,5.30
2018-06-18T11:36:32.200Z,4.30
2018-06-18T11:37:32.395Z,4.10
2018-06-18T11:38:32.502Z,3.40
2018-06-18T11:39:32.721Z,4.10
2018-06-18T11:40:32.849Z,3.70
2018-06-18T11:41:33.020Z,3.50
2018-06-18T11:42:33.184Z,2.30
2018-06-18T11:43:33.377Z,3.80
2018-06-18T11:44:33.543Z,2.90
2018-06-18T11:45:33.725Z,4.70
2018-06-18T11:46:33.882Z,4.30
2018-06-18T11:47:34.099Z,3.10
2018-06-18T11:48:34.230Z,4.60
2018-06-18T11:49:34.411Z,4.70
2018-06-18T11:50:34.642Z,4.80
2018-06-18T11:51:34.761Z,4.50
2018-06-18T11:52:34.954Z,4.00
2018-06-18T11:53:35.136Z,3.50
2018-06-18T11:54:35.236Z,4.60
2018-06-18T11:55:35.441Z,3.40
2018-06-18T11:56:35.584Z,3.10
2018-06-18T11:57:35.878Z,4.50
2018-06-18T11:58:35.968Z,3.20
2018-06-18T11:59:36.154Z,3.20
2018-06-18T12:00:36.266Z,3.90
2018-06-18T12:01:36.456Z,4.30
2018-06-18T12:02:36.714Z,4.40
2018-06-18T12:03:36.850Z,2.90
2018-06-18T12:04:36.969Z,3.80
2018-06-18T12:05:37.201Z,4.90
2018-06-18T12:06:37.416Z,4.00
2018-06-18T12:07:37.467Z,4.10
2018-06-18T12:08:37.648Z,2.10
2018-06-18T12:09:37.871Z,3.70
2018-06-18T12:10:38.006Z,1.90
2018-06-18T12:11:38.163Z,3.70
2018-06-18T12:12:38.310Z,3.30
2018-06-18T12:13:38.571Z,4.60
2018-06-18T12:14:38.749Z,6.00
2018-06-18T12:15:38.867Z,3.20
2018-06-18T12:16:39.134Z,2.40
2018-06-18T12:17:39.189Z,3.00
2018-06-18T12:18:39.404Z,3.60
2018-06-18T12:19:39.524Z,2.60
2018-06-18T12:20:39.741Z,2.40
2018-06-18T12:21:39.889Z,2.50
2018-06-18T12:22:40.082Z,2.30
2018-06-18T12:23:40.304Z,3.10
2018-06-18T12:24:40.473Z,2.50
2018-06-18T12:25:40.644Z,3.50
2018-06-18T12:26:40.817Z,1.60
2018-06-18T12:27:40.975Z,4.30
2018-06-18T12:28:41.142Z,3.20
2018-06-18T12:29:41.315Z,2.40
2018-06-18T12:30:41.500Z,3.00
2018-06-18T12:31:41.671Z,4.20
2018-06-18T12:32:41.870Z,2.30
2018-06-18T12:33:42.016Z,3.20
2018-06-18T12:34:42.178Z,2.90
2018-06-18T12:35:42.436Z,1.80
2018-06-18T12:36:42.509Z,2.40
2018-06-18T12:37:42.723Z,3.50
2018-06-18T12:38:42.932Z,3.90
2018-06-18T12:39:43.070Z,3.30
2018-06-18T12:40:43.241Z,3.40
2018-06-18T12:41:43.396Z,2.50
2018-06-18T12:42:43.595Z,2.20
2018-06-18T12:43:43.770Z,2.60
2018-06-18T12:44:43.987Z,3.50
2018-06-18T12:45:44.224Z,4.00
2018-06-18T12:46:44.472Z,2.60
2018-06-18T12:47:44.580Z,3.20
2018-06-18T12:48:44.740Z,2.30
2018-06-18T12:49:44.872Z,2.90
2018-06-18T12:50:45.070Z,1.70
2018-06-18T12:51:45.228Z,3.50
2018-06-18T12:52:45.419Z,4.30
2018-06-18T12:53:45.600Z,2.50
2018-06-18T12:54:45.774Z,3.90
2018-06-18T12:55:45.981Z,2.90
2018-06-18T12:56:46.140Z,3.70
2018-06-18T12:57:46.261Z,2.30
2018-06-18T12:58:46.388Z,2.80
2018-06-18T12:59:46.626Z,3.30
2018-06-18T13:00:46.807Z,2.70
2018-06-18T13:01:46.984Z,2.90
2018-06-18T13:02:47.187Z,2.60
2018-06-18T13:03:47.295Z,3.40
2018-06-18T13:04:47.442Z,3.40
2018-06-18T13:05:47.693Z,3.00
2018-06-18T13:06:47.785Z,3.60
2018-06-18T13:07:47.992Z,3.20
2018-06-18T13:08:48.230Z,3.60
2018-06-18T13:09:48.347Z,3.80
2018-06-18T13:10:48.613Z,2.60
2018-06-18T13:11:48.718Z,2.70
2018-06-18T13:12:48.917Z,1.90
2018-06-18T13:13:49.055Z,2.10
2018-06-18T13:14:49.217Z,3.50
2018-06-18T13:15:49.358Z,2.80
2018-06-18T13:16:49.566Z,2.20
2018-06-18T13:17:49.738Z,2.60
2018-06-18T13:18:49.881Z,3.00
2018-06-18T13:19:50.152Z,1.90
2018-06-18T13:20:50.275Z,4.30
2018-06-18T13:21:50.474Z,3.30
2018-06-18T13:22:50.667Z,4.40
2018-06-18T13:23:50.836Z,2.40
2018-06-18T13:24:51.031Z,3.80
2018-06-18T13:25:51.186Z,2.50
2018-06-18T13:26:51.384Z,3.50
2018-06-18T13:27:51.572Z,2.30
2018-06-18T13:28:51.672Z,5.40
2018-06-18T13:29:51.853Z,2.40
2018-06-18T13:30:52.005Z,3.80
2018-06-18T13:31:52.230Z,2.40
2018-06-18T13:32:52.403Z,3.40
2018-06-18T13:33:52.536Z,4.30
2018-06-18T13:34:52.679Z,3.60
2018-06-18T13:35:52.864Z,2.80
2018-06-18T13:36:52.993Z,4.40
2018-06-18T13:37:53.246Z,3.00
2018-06-18T13:38:53.369Z,3.30
2018-06-18T13:39:53.589Z,2.30
2018-06-18T13:40:53.739Z,3.80
2018-06-18T13:41:53.933Z,3.20
2018-06-18T13:42:54.075Z,2.90
2018-06-18T13:43:54.259Z,2.80
2018-06-18T13:44:54.458Z,2.80
2018-06-18T13:45:54.595Z,2.70
2018-06-18T13:46:54.704Z,2.50
2018-06-18T13:47:54.953Z,2.00
2018-06-18T13:48:55.069Z,2.90
2018-06-18T13:49:55.261Z,4.70
2018-06-18T13:50:55.432Z,3.50
2018-06-18T13:51:55.650Z,3.00
2018-06-18T13:52:55.803Z,2.80
2018-06-18T13:53:56.018Z,4.50
2018-06-18T13:54:56.135Z,3.10
2018-06-18T13:55:56.340Z,2.90
2018-06-18T13:56:56.557Z,2.60
2018-06-18T13:57:56.659Z,2.40
2018-06-18T13:58:56.895Z,3.30
2018-06-18T13:59:57.068Z,3.10
2018-06-18T14:00:57.236Z,3.20
2018-06-18T14:01:57.413Z,3.60
2018-06-18T14:02:57.532Z,3.00
2018-06-18T14:03:57.683Z,3.10
2018-06-18T14:04:57.914Z,3.10
2018-06-18T14:05:58.070Z,4.30
2018-06-18T14:06:58.191Z,3.40
2018-06-18T14:07:58.442Z,3.00
2018-06-18T14:08:58.564Z,3.20
2018-06-18T14:09:58.710Z,2.90
2018-06-18T14:10:58.944Z,2.50
2018-06-18T14:11:59.129Z,3.60
2018-06-18T14:12:59.338Z,3.30
2018-06-18T14:13:59.464Z,3.70
2018-06-18T14:14:59.585Z,2.70
2018-06-18T14:15:59.759Z,3.70
2018-06-18T14:16:59.955Z,4.20
2018-06-18T14:18:00.174Z,3.40
2018-06-18T14:19:00.348Z,3.70
2018-06-18T14:20:00.540Z,2.60
2018-06-18T14:21:00.699Z,2.60
2018-06-18T14:22:00.844Z,3.90
2018-06-18T14:23:01.018Z,3.30
2018-06-18T14:24:01.192Z,3.00
2018-06-18T14:25:01.369Z,3.40
2018-06-18T14:26:01.537Z,2.40
2018-06-18T14:27:01.718Z,2.50
2018-06-18T14:28:01.893Z,2.70
2018-06-18T14:29:02.021Z,2.60
2018-06-18T14:30:02.237Z,3.00
2018-06-18T14:31:02.442Z,3.60
2018-06-18T14:32:02.572Z,2.50
2018-06-18T14:33:02.723Z,2.60
2018-06-18T14:34:02.947Z,3.30
2018-06-18T14:35:03.075Z,4.90
2018-06-18T14:36:03.200Z,3.70
2018-06-18T14:37:03.448Z,2.70
2018-06-18T14:38:03.613Z,3.60
2018-06-18T14:39:03.765Z,4.00
2018-06-18T14:40:03.941Z,4.20
2018-06-18T14:41:04.161Z,3.80
2018-06-18T14:42:04.383Z,4.10
2018-06-18T14:43:04.427Z,2.80
2018-06-18T14:44:04.590Z,4.10
2018-06-18T14:45:04.885Z,3.00
2018-06-18T14:46:05.132Z,3.20
2018-06-18T14:47:05.166Z,3.70
2018-06-18T14:48:05.240Z,2.70
2018-06-18T14:49:05.455Z,2.40
2018-06-18T14:50:05.661Z,3.00
2018-06-18T14:51:05.805Z,2.30
2018-06-18T14:52:05.958Z,4.00
2018-06-18T14:53:06.158Z,4.40
2018-06-18T14:54:06.402Z,3.40
2018-06-18T14:55:06.516Z,3.90
2018-06-18T14:56:06.813Z,3.50
2018-06-18T14:57:06.934Z,2.70
2018-06-18T14:58:07.138Z,2.60
2018-06-18T14:59:07.305Z,4.50
2018-06-18T15:00:07.491Z,2.80
2018-06-18T15:01:07.626Z,3.00
2018-06-18T15:02:07.790Z,2.80
2018-06-18T15:03:07.953Z,4.40
2018-06-18T15:04:08.234Z,2.20
2018-06-18T15:05:08.304Z,3.40
2018-06-18T15:06:08.500Z,2.70
2018-06-18T15:07:08.694Z,5.20
2018-06-18T15:08:08.878Z,3.60
2018-06-18T15:09:09.211Z,3.70
2018-06-18T15:10:09.270Z,3.60
2018-06-18T15:11:09.424Z,3.80
2018-06-18T15:12:09.580Z,3.90
2018-06-18T15:13:09.725Z,2.40
2018-06-18T15:14:09.898Z,4.40
2018-06-18T15:15:10.208Z,3.20
2018-06-18T15:16:10.218Z,2.80
2018-06-18T15:17:10.410Z,3.30
2018-06-18T15:18:10.661Z,3.50
2018-06-18T15:19:10.785Z,2.60
2018-06-18T15:20:10.965Z,3.10
2018-06-18T15:21:11.188Z,3.10
2018-06-18T15:22:11.266Z,2.00
2018-06-18T15:23:11.465Z,2.60
2018-06-18T15:24:11.634Z,2.40
2018-06-18T15:25:11.858Z,3.20
2018-06-18T15:26:12.040Z,2.20
2018-06-18T15:27:12.246Z,3.10
2018-06-18T15:28:12.348Z,5.30
2018-06-18T15:29:12.518Z,3.50
2018-06-18T15:30:12.756Z,3.70
2018-06-18T15:31:12.892Z,2.50
2018-06-18T15:32:13.118Z,3.80
2018-06-18T15:33:13.281Z,3.80
2018-06-18T15:34:13.418Z,2.10
2018-06-18T15:35:13.599Z,3.20
2018-06-18T15:36:13.799Z,3.30
2018-06-18T15:37:13.936Z,3.00
2018-06-18T15:38:14.233Z,2.10
2018-06-18T15:39:14.235Z,2.50
2018-06-18T15:40:14.457Z,2.00
2018-06-18T15:41:14.607Z,2.20
2018-06-18T15:42:14.804Z,2.50
2018-06-18T15:43:15.018Z,2.90
2018-06-18T15:44:15.301Z,3.80
2018-06-18T15:45:15.313Z,1.40
2018-06-18T15:46:15.524Z,2.30
2018-06-18T15:47:15.692Z,1.70
2018-06-18T15:48:15.832Z,2.40
2018-06-18T15:49:15.951Z,3.30
2018-06-18T15:50:16.223Z,2.60
2018-06-18T15:51:16.376Z,3.60
2018-06-18T15:52:16.600Z,1.60
2018-06-18T15:53:16.707Z,1.70
2018-06-18T15:54:16.882Z,1.70
2018-06-18T15:55:17.004Z,2.30
2018-06-18T15:56:17.252Z,3.50
2018-06-18T15:57:17.454Z,2.00
2018-06-18T15:58:17.557Z,1.90
2018-06-18T15:59:17.730Z,4.00
2018-06-18T16:00:17.957Z,2.30
2018-06-18T16:01:18.175Z,1.80
2018-06-18T16:02:18.350Z,3.10
2018-06-18T16:03:18.447Z,2.20
2018-06-18T16:04:18.617Z,1.70
2018-06-18T16:05:18.807Z,2.40
2018-06-18T16:06:19.054Z,2.10
2018-06-18T16:07:19.228Z,2.90
2018-06-18T16:08:19.446Z,1.60
2018-06-18T16:09:19.550Z,2.60
2018-06-18T16:10:19.690Z,2.90
2018-06-18T16:11:19.937Z,3.50
2018-06-18T16:12:20.051Z,2.10
2018-06-18T16:13:20.228Z,3.50
2018-06-18T16:14:20.427Z,3.80
2018-06-18T16:15:20.581Z,2.50
2018-06-18T16:16:20.786Z,1.90
2018-06-18T16:17:20.953Z,2.00
2018-06-18T16:18:21.120Z,2.30
2018-06-18T16:19:21.278Z,3.30
2018-06-18T16:20:21.429Z,2.10
2018-06-18T16:21:21.585Z,1.70